sensor_id;sensor_type;location;lat;lon;timestamp;P1;durP1;ratioP1;P2;durP2;ratioP2
54143;SDS011;40050;47.324;18.792;2023-07-16T00:00:42;10.59;;;8.44;;
54143;SDS011;40050;47.324;18.792;2023-07-16T00:02:39;10.88;;;8.34;;
54143;SDS011;40050;47.324;18.792;2023-07-16T00:04:39;11.45;;;8.34;;
54143;SDS011;40050;47.324;18.792;2023-07-16T00:06:40;11.16;;;8.83;;
54143;SDS011;40050;47.324;18.792;2023-07-16T00:08:41;13.64;;;9.03;;
54143;SDS011;40050;47.324;18.792;2023-07-16T00:10:42;11.07;;;8.14;;
54143;SDS011;40050;47.324;18.792;2023-07-16T00:12:43;11.35;;;9.03;;
54143;SDS011;40050;47.324;18.792;2023-07-16T00:14:44;10.40;;;8.54;;
54143;SDS011;40050;47.324;18.792;2023-07-16T00:16:45;11.64;;;8.93;;
54143;SDS011;40050;47.324;18.792;2023-07-16T00:18:46;10.49;;;9.03;;
54143;SDS011;40050;47.324;18.792;2023-07-16T00:20:47;10.96;;;9.43;;
54143;SDS011;40050;47.324;18.792;2023-07-16T00:22:48;10.57;;;9.13;;
54143;SDS011;40050;47.324;18.792;2023-07-16T00:24:49;11.62;;;8.83;;
54143;SDS011;40050;47.324;18.792;2023-07-16T00:26:50;12.86;;;9.23;;
54143;SDS011;40050;47.324;18.792;2023-07-16T00:28:51;11.81;;;8.73;;
54143;SDS011;40050;47.324;18.792;2023-07-16T00:30:52;9.81;;;8.83;;
54143;SDS011;40050;47.324;18.792;2023-07-16T00:32:53;11.04;;;9.23;;
54143;SDS011;40050;47.324;18.792;2023-07-16T00:34:54;14.56;;;9.72;;
54143;SDS011;40050;47.324;18.792;2023-07-16T00:36:54;14.75;;;9.52;;
54143;SDS011;40050;47.324;18.792;2023-07-16T00:38:55;11.51;;;8.93;;
54143;SDS011;40050;47.324;18.792;2023-07-16T00:40:56;13.22;;;9.13;;
54143;SDS011;40050;47.324;18.792;2023-07-16T00:42:57;11.89;;;8.83;;
54143;SDS011;40050;47.324;18.792;2023-07-16T00:44:58;10.84;;;8.53;;
54143;SDS011;40050;47.324;18.792;2023-07-16T00:46:59;11.03;;;8.43;;
54143;SDS011;40050;47.324;18.792;2023-07-16T00:49:01;12.55;;;8.73;;
54143;SDS011;40050;47.324;18.792;2023-07-16T00:51:01;10.27;;;9.22;;
54143;SDS011;40050;47.324;18.792;2023-07-16T00:53:02;11.60;;;9.32;;
54143;SDS011;40050;47.324;18.792;2023-07-16T00:55:03;10.94;;;8.83;;
54143;SDS011;40050;47.324;18.792;2023-07-16T00:57:04;11.70;;;8.73;;
54143;SDS011;40050;47.324;18.792;2023-07-16T00:59:05;9.60;;;8.93;;
54143;SDS011;40050;47.324;18.792;2023-07-16T01:01:07;10.17;;;9.12;;
54143;SDS011;40050;47.324;18.792;2023-07-16T01:03:09;10.93;;;9.62;;
54143;SDS011;40050;47.324;18.792;2023-07-16T01:05:09;11.02;;;10.21;;
54143;SDS011;40050;47.324;18.792;2023-07-16T01:07:12;11.95;;;9.52;;
54143;SDS011;40050;47.324;18.792;2023-07-16T01:09:16;12.14;;;9.12;;
54143;SDS011;40050;47.324;18.792;2023-07-16T01:11:17;12.42;;;9.22;;
54143;SDS011;40050;47.324;18.792;2023-07-16T01:13:18;10.90;;;8.92;;
54143;SDS011;40050;47.324;18.792;2023-07-16T01:15:19;10.82;;;9.32;;
54143;SDS011;40050;47.324;18.792;2023-07-16T01:17:20;12.15;;;9.32;;
54143;SDS011;40050;47.324;18.792;2023-07-16T01:19:21;10.82;;;9.12;;
54143;SDS011;40050;47.324;18.792;2023-07-16T01:21:22;12.32;;;9.81;;
54143;SDS011;40050;47.324;18.792;2023-07-16T01:26:08;11.55;;;9.11;;
54143;SDS011;40050;47.324;18.792;2023-07-16T01:28:16;13.06;;;9.81;;
54143;SDS011;40050;47.324;18.792;2023-07-16T01:30:21;11.99;;;9.90;;
54143;SDS011;40050;47.324;18.792;2023-07-16T01:32:22;14.33;;;10.09;;
54143;SDS011;40050;47.324;18.792;2023-07-16T01:34:25;13.65;;;10.09;;
54143;SDS011;40050;47.324;18.792;2023-07-16T01:36:27;11.00;;;10.09;;
54143;SDS011;40050;47.324;18.792;2023-07-16T01:38:28;12.12;;;10.58;;
54143;SDS011;40050;47.324;18.792;2023-07-16T01:40:29;13.23;;;10.77;;
54143;SDS011;40050;47.324;18.792;2023-07-16T01:42:30;15.77;;;10.77;;
54143;SDS011;40050;47.324;18.792;2023-07-16T01:44:31;11.53;;;10.18;;
54143;SDS011;40050;47.324;18.792;2023-07-16T01:46:32;13.80;;;10.77;;
54143;SDS011;40050;47.324;18.792;2023-07-16T01:48:55;12.86;;;10.08;;
54143;SDS011;40050;47.324;18.792;2023-07-16T01:50:56;11.73;;;9.88;;
54143;SDS011;40050;47.324;18.792;2023-07-16T01:52:56;10.80;;;9.59;;
54143;SDS011;40050;47.324;18.792;2023-07-16T01:54:57;11.95;;;9.49;;
54143;SDS011;40050;47.324;18.792;2023-07-16T01:56:58;11.95;;;10.28;;
54143;SDS011;40050;47.324;18.792;2023-07-16T01:58:59;11.38;;;9.49;;
54143;SDS011;40050;47.324;18.792;2023-07-16T02:01:00;12.68;;;10.38;;
54143;SDS011;40050;47.324;18.792;2023-07-16T02:03:01;13.33;;;10.18;;
54143;SDS011;40050;47.324;18.792;2023-07-16T02:05:02;13.09;;;9.89;;
54143;SDS011;40050;47.324;18.792;2023-07-16T02:07:03;11.31;;;10.09;;
54143;SDS011;40050;47.324;18.792;2023-07-16T02:09:04;11.11;;;9.60;;
54143;SDS011;40050;47.324;18.792;2023-07-16T02:11:05;12.62;;;9.69;;
54143;SDS011;40050;47.324;18.792;2023-07-16T02:13:06;13.55;;;10.09;;
54143;SDS011;40050;47.324;18.792;2023-07-16T02:15:07;13.07;;;9.79;;
54143;SDS011;40050;47.324;18.792;2023-07-16T02:17:07;12.78;;;10.58;;
54143;SDS011;40050;47.324;18.792;2023-07-16T02:19:08;12.39;;;10.28;;
54143;SDS011;40050;47.324;18.792;2023-07-16T02:21:09;13.79;;;10.47;;
54143;SDS011;40050;47.324;18.792;2023-07-16T02:23:10;11.53;;;10.27;;
54143;SDS011;40050;47.324;18.792;2023-07-16T02:25:11;13.78;;;10.67;;
54143;SDS011;40050;47.324;18.792;2023-07-16T02:27:12;12.36;;;10.67;;
54143;SDS011;40050;47.324;18.792;2023-07-16T02:29:13;12.64;;;10.86;;
54143;SDS011;40050;47.324;18.792;2023-07-16T02:31:14;13.86;;;10.37;;
54143;SDS011;40050;47.324;18.792;2023-07-16T02:33:15;11.33;;;10.27;;
54143;SDS011;40050;47.324;18.792;2023-07-16T02:35:16;11.60;;;10.37;;
54143;SDS011;40050;47.324;18.792;2023-07-16T02:37:16;12.61;;;10.46;;
54143;SDS011;40050;47.324;18.792;2023-07-16T02:39:17;12.52;;;10.17;;
54143;SDS011;40050;47.324;18.792;2023-07-16T02:41:19;12.98;;;10.86;;
54143;SDS011;40050;47.324;18.792;2023-07-16T02:43:20;11.87;;;10.46;;
54143;SDS011;40050;47.324;18.792;2023-07-16T02:45:21;12.79;;;10.36;;
54143;SDS011;40050;47.324;18.792;2023-07-16T02:47:22;12.04;;;10.66;;
54143;SDS011;40050;47.324;18.792;2023-07-16T02:49:23;13.25;;;10.66;;
54143;SDS011;40050;47.324;18.792;2023-07-16T02:51:24;11.37;;;10.45;;
54143;SDS011;40050;47.324;18.792;2023-07-16T02:53:24;11.73;;;10.16;;
54143;SDS011;40050;47.324;18.792;2023-07-16T02:55:25;12.56;;;10.06;;
54143;SDS011;40050;47.324;18.792;2023-07-16T02:57:26;14.60;;;9.96;;
54143;SDS011;40050;47.324;18.792;2023-07-16T02:59:27;16.17;;;9.95;;
54143;SDS011;40050;47.324;18.792;2023-07-16T03:01:28;11.80;;;9.16;;
54143;SDS011;40050;47.324;18.792;2023-07-16T03:03:29;15.23;;;10.15;;
54143;SDS011;40050;47.324;18.792;2023-07-16T03:05:30;11.42;;;9.06;;
54143;SDS011;40050;47.324;18.792;2023-07-16T03:07:31;10.03;;;9.36;;
54143;SDS011;40050;47.324;18.792;2023-07-16T03:09:32;12.80;;;8.77;;
54143;SDS011;40050;47.324;18.792;2023-07-16T03:11:33;12.53;;;9.55;;
54143;SDS011;40050;47.324;18.792;2023-07-16T03:13:34;11.78;;;9.75;;
54143;SDS011;40050;47.324;18.792;2023-07-16T03:15:35;12.14;;;9.45;;
54143;SDS011;40050;47.324;18.792;2023-07-16T03:17:36;14.09;;;9.26;;
54143;SDS011;40050;47.324;18.792;2023-07-16T03:19:37;12.24;;;9.16;;
54143;SDS011;40050;47.324;18.792;2023-07-16T03:21:38;9.64;;;8.67;;
54143;SDS011;40050;47.324;18.792;2023-07-16T03:23:39;12.61;;;8.86;;
54143;SDS011;40050;47.324;18.792;2023-07-16T03:25:40;9.55;;;8.57;;
54143;SDS011;40050;47.324;18.792;2023-07-16T03:27:41;12.80;;;9.06;;
54143;SDS011;40050;47.324;18.792;2023-07-16T03:29:42;10.57;;;8.77;;
54143;SDS011;40050;47.324;18.792;2023-07-16T03:31:43;13.45;;;8.77;;
54143;SDS011;40050;47.324;18.792;2023-07-16T03:33:44;9.74;;;8.57;;
54143;SDS011;40050;47.324;18.792;2023-07-16T03:35:45;9.65;;;8.17;;
54143;SDS011;40050;47.324;18.792;2023-07-16T03:37:46;9.46;;;8.57;;
54143;SDS011;40050;47.324;18.792;2023-07-16T03:39:47;11.86;;;9.16;;
54143;SDS011;40050;47.324;18.792;2023-07-16T03:41:47;11.67;;;8.86;;
54143;SDS011;40050;47.324;18.792;2023-07-16T03:43:48;12.51;;;9.35;;
54143;SDS011;40050;47.324;18.792;2023-07-16T03:45:49;11.12;;;9.16;;
54143;SDS011;40050;47.324;18.792;2023-07-16T03:47:50;13.52;;;9.94;;
54143;SDS011;40050;47.324;18.792;2023-07-16T03:49:51;12.78;;;9.35;;
54143;SDS011;40050;47.324;18.792;2023-07-16T03:51:52;11.85;;;9.06;;
54143;SDS011;40050;47.324;18.792;2023-07-16T03:53:53;10.45;;;8.95;;
54143;SDS011;40050;47.324;18.792;2023-07-16T03:55:54;11.01;;;8.86;;
54143;SDS011;40050;47.324;18.792;2023-07-16T03:57:55;10.63;;;9.15;;
54143;SDS011;40050;47.324;18.792;2023-07-16T03:59:56;12.37;;;9.24;;
54143;SDS011;40050;47.324;18.792;2023-07-16T04:01:57;10.25;;;8.85;;
54143;SDS011;40050;47.324;18.792;2023-07-16T04:03:58;9.51;;;8.56;;
54143;SDS011;40050;47.324;18.792;2023-07-16T04:06:05;9.22;;;8.16;;
54143;SDS011;40050;47.324;18.792;2023-07-16T04:07:59;9.40;;;8.75;;
54143;SDS011;40050;47.324;18.792;2023-07-16T04:10:00;10.41;;;9.14;;
54143;SDS011;40050;47.324;18.792;2023-07-16T04:12:01;10.41;;;8.45;;
54143;SDS011;40050;47.324;18.792;2023-07-16T04:14:03;9.75;;;8.64;;
54143;SDS011;40050;47.324;18.792;2023-07-16T04:16:03;10.58;;;8.64;;
54143;SDS011;40050;47.324;18.792;2023-07-16T04:18:04;10.66;;;8.64;;
54143;SDS011;40050;47.324;18.792;2023-07-16T04:20:05;10.57;;;9.13;;
54143;SDS011;40050;47.324;18.792;2023-07-16T04:22:06;14.64;;;8.65;;
54143;SDS011;40050;47.324;18.792;2023-07-16T04:24:07;9.93;;;8.64;;
54143;SDS011;40050;47.324;18.792;2023-07-16T04:26:08;12.88;;;8.94;;
54143;SDS011;40050;47.324;18.792;2023-07-16T04:28:09;12.61;;;8.74;;
54143;SDS011;40050;47.324;18.792;2023-07-16T04:30:10;9.76;;;9.14;;
54143;SDS011;40050;47.324;18.792;2023-07-16T04:32:11;10.12;;;9.14;;
54143;SDS011;40050;47.324;18.792;2023-07-16T04:34:11;10.21;;;8.45;;
54143;SDS011;40050;47.324;18.792;2023-07-16T04:36:12;10.40;;;8.55;;
54143;SDS011;40050;47.324;18.792;2023-07-16T04:38:13;11.15;;;9.63;;
54143;SDS011;40050;47.324;18.792;2023-07-16T04:40:14;9.23;;;7.96;;
54143;SDS011;40050;47.324;18.792;2023-07-16T04:42:15;11.34;;;9.24;;
54143;SDS011;40050;47.324;18.792;2023-07-16T04:44:16;9.61;;;8.56;;
54143;SDS011;40050;47.324;18.792;2023-07-16T04:46:17;11.10;;;8.86;;
54143;SDS011;40050;47.324;18.792;2023-07-16T04:48:18;12.03;;;8.56;;
54143;SDS011;40050;47.324;18.792;2023-07-16T04:50:19;9.90;;;8.27;;
54143;SDS011;40050;47.324;18.792;2023-07-16T04:52:19;9.63;;;8.46;;
54143;SDS011;40050;47.324;18.792;2023-07-16T04:54:20;12.89;;;9.06;;
54143;SDS011;40050;47.324;18.792;2023-07-16T04:56:21;9.37;;;8.17;;
54143;SDS011;40050;47.324;18.792;2023-07-16T04:58:22;10.30;;;7.98;;
54143;SDS011;40050;47.324;18.792;2023-07-16T05:00:24;11.19;;;7.99;;
54143;SDS011;40050;47.324;18.792;2023-07-16T05:02:25;10.07;;;8.39;;
54143;SDS011;40050;47.324;18.792;2023-07-16T05:04:26;10.28;;;8.39;;
54143;SDS011;40050;47.324;18.792;2023-07-16T05:06:27;9.64;;;7.90;;
54143;SDS011;40050;47.324;18.792;2023-07-16T05:08:28;11.09;;;7.81;;
54143;SDS011;40050;47.324;18.792;2023-07-16T05:10:28;9.41;;;7.42;;
54143;SDS011;40050;47.324;18.792;2023-07-16T05:12:29;8.39;;;7.03;;
54143;SDS011;40050;47.324;18.792;2023-07-16T05:14:30;9.18;;;7.43;;
54143;SDS011;40050;47.324;18.792;2023-07-16T05:16:34;7.23;;;6.74;;
54143;SDS011;40050;47.324;18.792;2023-07-16T05:18:32;9.10;;;6.94;;
54143;SDS011;40050;47.324;18.792;2023-07-16T05:20:33;9.23;;;6.94;;
54143;SDS011;40050;47.324;18.792;2023-07-16T05:22:34;7.15;;;6.25;;
54143;SDS011;40050;47.324;18.792;2023-07-16T05:24:35;8.63;;;6.46;;
54143;SDS011;40050;47.324;18.792;2023-07-16T05:26:37;8.08;;;6.17;;
54143;SDS011;40050;47.324;18.792;2023-07-16T05:28:37;8.01;;;5.67;;
54143;SDS011;40050;47.324;18.792;2023-07-16T05:30:38;8.03;;;5.77;;
54143;SDS011;40050;47.324;18.792;2023-07-16T05:32:40;7.38;;;5.38;;
54143;SDS011;40050;47.324;18.792;2023-07-16T05:34:40;9.23;;;5.88;;
54143;SDS011;40050;47.324;18.792;2023-07-16T05:36:42;8.87;;;5.28;;
54143;SDS011;40050;47.324;18.792;2023-07-16T05:38:42;6.33;;;5.28;;
54143;SDS011;40050;47.324;18.792;2023-07-16T05:40:44;6.95;;;5.09;;
54143;SDS011;40050;47.324;18.792;2023-07-16T05:42:44;8.03;;;4.99;;
54143;SDS011;40050;47.324;18.792;2023-07-16T05:44:47;5.39;;;4.79;;
54143;SDS011;40050;47.324;18.792;2023-07-16T05:46:46;7.66;;;4.89;;
54143;SDS011;40050;47.324;18.792;2023-07-16T05:48:47;8.42;;;4.49;;
54143;SDS011;40050;47.324;18.792;2023-07-16T05:50:48;6.48;;;4.89;;
54143;SDS011;40050;47.324;18.792;2023-07-16T05:52:49;8.26;;;4.79;;
54143;SDS011;40050;47.324;18.792;2023-07-16T05:54:49;7.08;;;4.89;;
54143;SDS011;40050;47.324;18.792;2023-07-16T05:56:50;6.31;;;4.49;;
54143;SDS011;40050;47.324;18.792;2023-07-16T05:58:51;5.81;;;5.09;;
54143;SDS011;40050;47.324;18.792;2023-07-16T06:00:52;5.92;;;4.89;;
54143;SDS011;40050;47.324;18.792;2023-07-16T06:02:53;7.40;;;4.59;;
54143;SDS011;40050;47.324;18.792;2023-07-16T06:04:54;6.50;;;4.89;;
54143;SDS011;40050;47.324;18.792;2023-07-16T06:06:56;7.38;;;4.89;;
54143;SDS011;40050;47.324;18.792;2023-07-16T06:08:56;6.21;;;4.79;;
54143;SDS011;40050;47.324;18.792;2023-07-16T06:10:57;7.79;;;5.59;;
54143;SDS011;40050;47.324;18.792;2023-07-16T06:12:58;8.38;;;5.49;;
54143;SDS011;40050;47.324;18.792;2023-07-16T06:14:59;6.71;;;5.29;;
54143;SDS011;40050;47.324;18.792;2023-07-16T06:17:00;8.19;;;5.19;;
54143;SDS011;40050;47.324;18.792;2023-07-16T06:19:01;7.70;;;5.39;;
54143;SDS011;40050;47.324;18.792;2023-07-16T06:21:01;8.89;;;5.09;;
54143;SDS011;40050;47.324;18.792;2023-07-16T06:23:02;7.60;;;4.99;;
54143;SDS011;40050;47.324;18.792;2023-07-16T06:25:03;7.98;;;5.19;;
54143;SDS011;40050;47.324;18.792;2023-07-16T06:27:04;7.80;;;4.79;;
54143;SDS011;40050;47.324;18.792;2023-07-16T06:29:05;6.32;;;4.70;;
54143;SDS011;40050;47.324;18.792;2023-07-16T06:31:06;5.74;;;4.90;;
54143;SDS011;40050;47.324;18.792;2023-07-16T06:33:07;7.72;;;5.10;;
54143;SDS011;40050;47.324;18.792;2023-07-16T06:35:08;8.03;;;5.20;;
54143;SDS011;40050;47.324;18.792;2023-07-16T06:37:09;6.53;;;5.00;;
54143;SDS011;40050;47.324;18.792;2023-07-16T06:39:10;8.22;;;5.00;;
54143;SDS011;40050;47.324;18.792;2023-07-16T06:41:11;8.82;;;5.40;;
54143;SDS011;40050;47.324;18.792;2023-07-16T06:43:12;6.74;;;4.60;;
54143;SDS011;40050;47.324;18.792;2023-07-16T06:45:13;7.43;;;5.10;;
54143;SDS011;40050;47.324;18.792;2023-07-16T06:47:14;6.04;;;4.80;;
54143;SDS011;40050;47.324;18.792;2023-07-16T06:49:15;7.33;;;4.60;;
54143;SDS011;40050;47.324;18.792;2023-07-16T06:51:16;7.43;;;4.70;;
54143;SDS011;40050;47.324;18.792;2023-07-16T06:53:17;5.95;;;4.30;;
54143;SDS011;40050;47.324;18.792;2023-07-16T06:55:18;5.46;;;4.40;;
54143;SDS011;40050;47.324;18.792;2023-07-16T06:57:19;7.75;;;4.40;;
54143;SDS011;40050;47.324;18.792;2023-07-16T06:59:20;7.74;;;4.50;;
54143;SDS011;40050;47.324;18.792;2023-07-16T07:01:20;7.16;;;4.10;;
54143;SDS011;40050;47.324;18.792;2023-07-16T07:03:21;7.86;;;4.40;;
54143;SDS011;40050;47.324;18.792;2023-07-16T07:05:22;8.66;;;4.80;;
54143;SDS011;40050;47.324;18.792;2023-07-16T07:07:23;8.86;;;4.40;;
54143;SDS011;40050;47.324;18.792;2023-07-16T07:09:24;7.56;;;4.40;;
54143;SDS011;40050;47.324;18.792;2023-07-16T07:11:25;7.26;;;4.40;;
54143;SDS011;40050;47.324;18.792;2023-07-16T07:13:26;6.87;;;4.40;;
54143;SDS011;40050;47.324;18.792;2023-07-16T07:15:27;6.37;;;4.20;;
54143;SDS011;40050;47.324;18.792;2023-07-16T07:17:28;5.57;;;4.20;;
54143;SDS011;40050;47.324;18.792;2023-07-16T07:19:29;6.97;;;4.00;;
54143;SDS011;40050;47.324;18.792;2023-07-16T07:21:29;7.86;;;4.20;;
54143;SDS011;40050;47.324;18.792;2023-07-16T07:23:30;8.16;;;4.30;;
54143;SDS011;40050;47.324;18.792;2023-07-16T07:25:31;9.46;;;4.60;;
54143;SDS011;40050;47.324;18.792;2023-07-16T07:27:32;7.17;;;4.40;;
54143;SDS011;40050;47.324;18.792;2023-07-16T07:29:33;5.77;;;4.30;;
54143;SDS011;40050;47.324;18.792;2023-07-16T07:31:34;7.07;;;3.90;;
54143;SDS011;40050;47.324;18.792;2023-07-16T07:33:35;7.07;;;4.40;;
54143;SDS011;40050;47.324;18.792;2023-07-16T07:35:36;11.35;;;4.10;;
54143;SDS011;40050;47.324;18.792;2023-07-16T07:37:37;5.97;;;4.20;;
54143;SDS011;40050;47.324;18.792;2023-07-16T07:39:38;6.77;;;4.60;;
54143;SDS011;40050;47.324;18.792;2023-07-16T07:41:39;5.68;;;4.50;;
54143;SDS011;40050;47.324;18.792;2023-07-16T07:43:40;8.57;;;4.40;;
54143;SDS011;40050;47.324;18.792;2023-07-16T07:45:41;9.56;;;4.20;;
54143;SDS011;40050;47.324;18.792;2023-07-16T07:47:42;7.67;;;4.50;;
54143;SDS011;40050;47.324;18.792;2023-07-16T07:49:43;5.48;;;4.30;;
54143;SDS011;40050;47.324;18.792;2023-07-16T07:51:44;7.77;;;4.60;;
54143;SDS011;40050;47.324;18.792;2023-07-16T07:53:45;7.47;;;4.50;;
54143;SDS011;40050;47.324;18.792;2023-07-16T07:55:46;5.98;;;4.50;;
54143;SDS011;40050;47.324;18.792;2023-07-16T07:57:47;7.87;;;4.50;;
54143;SDS011;40050;47.324;18.792;2023-07-16T07:59:48;7.17;;;4.50;;
54143;SDS011;40050;47.324;18.792;2023-07-16T08:01:49;7.87;;;4.60;;
54143;SDS011;40050;47.324;18.792;2023-07-16T08:03:50;7.37;;;4.50;;
54143;SDS011;40050;47.324;18.792;2023-07-16T08:05:57;6.08;;;4.50;;
54143;SDS011;40050;47.324;18.792;2023-07-16T08:07:52;6.38;;;4.80;;
54143;SDS011;40050;47.324;18.792;2023-07-16T08:09:53;6.18;;;4.30;;
54143;SDS011;40050;47.324;18.792;2023-07-16T08:11:54;8.67;;;4.70;;
54143;SDS011;40050;47.324;18.792;2023-07-16T08:13:55;12.26;;;4.60;;
54143;SDS011;40050;47.324;18.792;2023-07-16T08:15:55;6.08;;;4.60;;
54143;SDS011;40050;47.324;18.792;2023-07-16T08:17:57;7.18;;;4.40;;
54143;SDS011;40050;47.324;18.792;2023-07-16T08:19:58;5.98;;;4.60;;
54143;SDS011;40050;47.324;18.792;2023-07-16T08:21:59;8.77;;;5.10;;
54143;SDS011;40050;47.324;18.792;2023-07-16T08:23:59;6.98;;;4.30;;
54143;SDS011;40050;47.324;18.792;2023-07-16T08:26:00;6.08;;;4.60;;
54143;SDS011;40050;47.324;18.792;2023-07-16T08:28:02;8.58;;;4.90;;
54143;SDS011;40050;47.324;18.792;2023-07-16T08:30:02;8.58;;;5.30;;
54143;SDS011;40050;47.324;18.792;2023-07-16T08:32:04;9.18;;;4.70;;
54143;SDS011;40050;47.324;18.792;2023-07-16T08:34:04;6.38;;;4.80;;
54143;SDS011;40050;47.324;18.792;2023-07-16T08:36:05;7.58;;;4.80;;
54143;SDS011;40050;47.324;18.792;2023-07-16T08:38:06;7.48;;;4.60;;
54143;SDS011;40050;47.324;18.792;2023-07-16T08:40:07;6.98;;;4.30;;
54143;SDS011;40050;47.324;18.792;2023-07-16T08:42:09;7.58;;;4.10;;
54143;SDS011;40050;47.324;18.792;2023-07-16T08:44:10;6.49;;;4.20;;
54143;SDS011;40050;47.324;18.792;2023-07-16T08:46:11;7.29;;;4.00;;
54143;SDS011;40050;47.324;18.792;2023-07-16T08:48:12;8.58;;;4.30;;
54143;SDS011;40050;47.324;18.792;2023-07-16T08:50:13;9.18;;;4.20;;
54143;SDS011;40050;47.324;18.792;2023-07-16T08:52:14;8.38;;;4.50;;
54143;SDS011;40050;47.324;18.792;2023-07-16T08:54:15;6.89;;;4.10;;
54143;SDS011;40050;47.324;18.792;2023-07-16T08:56:16;5.59;;;3.80;;
54143;SDS011;40050;47.324;18.792;2023-07-16T08:58:18;8.19;;;4.30;;
54143;SDS011;40050;47.324;18.792;2023-07-16T09:00:20;10.18;;;5.00;;
54143;SDS011;40050;47.324;18.792;2023-07-16T09:02:21;6.89;;;3.70;;
54143;SDS011;40050;47.324;18.792;2023-07-16T09:04:22;7.79;;;4.30;;
54143;SDS011;40050;47.324;18.792;2023-07-16T09:06:24;8.29;;;5.10;;
54143;SDS011;40050;47.324;18.792;2023-07-16T09:08:25;6.39;;;4.00;;
54143;SDS011;40050;47.324;18.792;2023-07-16T09:10:27;8.69;;;3.90;;
54143;SDS011;40050;47.324;18.792;2023-07-16T09:12:28;7.29;;;3.50;;
54143;SDS011;40050;47.324;18.792;2023-07-16T09:14:32;6.49;;;3.60;;
54143;SDS011;40050;47.324;18.792;2023-07-16T09:16:33;6.89;;;3.70;;
54143;SDS011;40050;47.324;18.792;2023-07-16T09:18:34;8.19;;;3.70;;
54143;SDS011;40050;47.324;18.792;2023-07-16T09:20:35;6.19;;;3.40;;
54143;SDS011;40050;47.324;18.792;2023-07-16T09:22:36;5.69;;;3.50;;
54143;SDS011;40050;47.324;18.792;2023-07-16T09:24:38;5.59;;;3.70;;
54143;SDS011;40050;47.324;18.792;2023-07-16T09:26:47;6.99;;;3.80;;
54143;SDS011;40050;47.324;18.792;2023-07-16T09:28:40;5.79;;;3.70;;
54143;SDS011;40050;47.324;18.792;2023-07-16T09:30:46;6.49;;;3.80;;
54143;SDS011;40050;47.324;18.792;2023-07-16T09:32:47;6.29;;;3.40;;
54143;SDS011;40050;47.324;18.792;2023-07-16T09:34:50;6.29;;;3.60;;
54143;SDS011;40050;47.324;18.792;2023-07-16T09:36:58;6.19;;;3.70;;
54143;SDS011;40050;47.324;18.792;2023-07-16T09:38:57;6.09;;;3.70;;
54143;SDS011;40050;47.324;18.792;2023-07-16T09:40:59;5.19;;;3.70;;
54143;SDS011;40050;47.324;18.792;2023-07-16T09:43:01;6.89;;;3.60;;
54143;SDS011;40050;47.324;18.792;2023-07-16T09:45:02;6.09;;;3.50;;
54143;SDS011;40050;47.324;18.792;2023-07-16T09:47:03;4.59;;;3.30;;
54143;SDS011;40050;47.324;18.792;2023-07-16T09:49:03;8.29;;;3.90;;
54143;SDS011;40050;47.324;18.792;2023-07-16T09:51:05;6.59;;;3.70;;
54143;SDS011;40050;47.324;18.792;2023-07-16T09:53:06;7.19;;;3.50;;
54143;SDS011;40050;47.324;18.792;2023-07-16T09:55:09;5.39;;;3.60;;
54143;SDS011;40050;47.324;18.792;2023-07-16T09:57:15;7.09;;;3.60;;
54143;SDS011;40050;47.324;18.792;2023-07-16T09:59:16;9.39;;;3.80;;
54143;SDS011;40050;47.324;18.792;2023-07-16T10:01:17;4.40;;;3.60;;
54143;SDS011;40050;47.324;18.792;2023-07-16T10:03:18;8.89;;;3.90;;
54143;SDS011;40050;47.324;18.792;2023-07-16T10:05:23;8.49;;;3.70;;
54143;SDS011;40050;47.324;18.792;2023-07-16T10:07:27;10.59;;;3.80;;
54143;SDS011;40050;47.324;18.792;2023-07-16T10:09:34;4.69;;;3.90;;
54143;SDS011;40050;47.324;18.792;2023-07-16T10:11:29;5.89;;;3.80;;
54143;SDS011;40050;47.324;18.792;2023-07-16T10:13:33;7.79;;;4.10;;
54143;SDS011;40050;47.324;18.792;2023-07-16T10:15:34;9.99;;;4.50;;
54143;SDS011;40050;47.324;18.792;2023-07-16T10:17:49;8.09;;;3.80;;
54143;SDS011;40050;47.324;18.792;2023-07-16T10:19:47;4.49;;;3.70;;
54143;SDS011;40050;47.324;18.792;2023-07-16T10:21:39;7.09;;;3.90;;
54143;SDS011;40050;47.324;18.792;2023-07-16T10:23:47;7.99;;;3.90;;
54143;SDS011;40050;47.324;18.792;2023-07-16T10:26:00;7.29;;;3.60;;
54143;SDS011;40050;47.324;18.792;2023-07-16T10:27:59;7.19;;;3.90;;
54143;SDS011;40050;47.324;18.792;2023-07-16T10:30:00;6.29;;;4.20;;
54143;SDS011;40050;47.324;18.792;2023-07-16T10:32:04;7.29;;;4.00;;
54143;SDS011;40050;47.324;18.792;2023-07-16T10:34:05;7.99;;;4.20;;
54143;SDS011;40050;47.324;18.792;2023-07-16T10:36:06;6.79;;;4.50;;
54143;SDS011;40050;47.324;18.792;2023-07-16T10:38:07;6.49;;;4.20;;
54143;SDS011;40050;47.324;18.792;2023-07-16T10:40:16;9.29;;;4.10;;
54143;SDS011;40050;47.324;18.792;2023-07-16T10:42:17;7.79;;;4.10;;
54143;SDS011;40050;47.324;18.792;2023-07-16T10:44:20;9.39;;;4.10;;
54143;SDS011;40050;47.324;18.792;2023-07-16T10:46:21;6.79;;;4.10;;
54143;SDS011;40050;47.324;18.792;2023-07-16T10:48:26;6.59;;;4.30;;
54143;SDS011;40050;47.324;18.792;2023-07-16T10:50:24;7.89;;;3.90;;
54143;SDS011;40050;47.324;18.792;2023-07-16T10:52:25;8.19;;;4.00;;
54143;SDS011;40050;47.324;18.792;2023-07-16T10:54:26;5.79;;;3.70;;
54143;SDS011;40050;47.324;18.792;2023-07-16T10:56:29;4.79;;;3.90;;
54143;SDS011;40050;47.324;18.792;2023-07-16T10:58:36;6.49;;;4.30;;
54143;SDS011;40050;47.324;18.792;2023-07-16T11:00:39;5.39;;;4.30;;
54143;SDS011;40050;47.324;18.792;2023-07-16T11:02:39;6.89;;;4.20;;
54143;SDS011;40050;47.324;18.792;2023-07-16T11:04:40;6.89;;;4.20;;
54143;SDS011;40050;47.324;18.792;2023-07-16T11:06:41;6.99;;;4.20;;
54143;SDS011;40050;47.324;18.792;2023-07-16T11:08:52;6.99;;;4.40;;
54143;SDS011;40050;47.324;18.792;2023-07-16T11:10:54;8.59;;;4.30;;
54143;SDS011;40050;47.324;18.792;2023-07-16T11:12:55;6.29;;;4.10;;
54143;SDS011;40050;47.324;18.792;2023-07-16T11:14:56;5.89;;;4.30;;
54143;SDS011;40050;47.324;18.792;2023-07-16T11:17:03;5.29;;;4.20;;
54143;SDS011;40050;47.324;18.792;2023-07-16T11:18:57;6.39;;;4.20;;
54143;SDS011;40050;47.324;18.792;2023-07-16T11:20:59;7.19;;;4.20;;
54143;SDS011;40050;47.324;18.792;2023-07-16T11:23:00;9.58;;;4.30;;
54143;SDS011;40050;47.324;18.792;2023-07-16T11:25:11;6.89;;;4.30;;
54143;SDS011;40050;47.324;18.792;2023-07-16T11:27:19;8.19;;;4.50;;
54143;SDS011;40050;47.324;18.792;2023-07-16T11:29:14;7.69;;;4.40;;
54143;SDS011;40050;47.324;18.792;2023-07-16T11:31:16;6.39;;;4.40;;
54143;SDS011;40050;47.324;18.792;2023-07-16T11:33:14;12.17;;;4.60;;
54143;SDS011;40050;47.324;18.792;2023-07-16T11:35:27;7.49;;;4.10;;
54143;SDS011;40050;47.324;18.792;2023-07-16T11:37:41;5.99;;;4.30;;
54143;SDS011;40050;47.324;18.792;2023-07-16T11:39:42;6.89;;;4.30;;
54143;SDS011;40050;47.324;18.792;2023-07-16T11:41:53;9.98;;;4.40;;
54143;SDS011;40050;47.324;18.792;2023-07-16T11:43:44;8.69;;;5.10;;
54143;SDS011;40050;47.324;18.792;2023-07-16T11:45:47;6.69;;;4.30;;
54143;SDS011;40050;47.324;18.792;2023-07-16T11:47:47;10.48;;;4.60;;
54143;SDS011;40050;47.324;18.792;2023-07-16T11:49:48;9.58;;;4.60;;
54143;SDS011;40050;47.324;18.792;2023-07-16T11:51:49;8.98;;;4.40;;
54143;SDS011;40050;47.324;18.792;2023-07-16T11:53:50;11.28;;;4.60;;
54143;SDS011;40050;47.324;18.792;2023-07-16T11:55:51;8.18;;;4.40;;
54143;SDS011;40050;47.324;18.792;2023-07-16T11:57:52;8.38;;;4.30;;